sensor_id;sensor_type;location;lat;lon;timestamp;pressure;altitude;pressure_sealevel;temperature;humidity
57948;BME280;43754;56.992;24.292;2023-02-28T00:00:43;102702.59;;;-0.54;100.00
57948;BME280;43754;56.992;24.292;2023-02-28T00:03:16;102708.59;;;-0.50;100.00
57948;BME280;43754;56.992;24.292;2023-02-28T00:05:48;102693.41;;;-0.43;100.00
57948;BME280;43754;56.992;24.292;2023-02-28T00:08:20;102698.56;;;-0.40;100.00
57948;BME280;43754;56.992;24.292;2023-02-28T00:10:52;102691.56;;;-0.41;100.00
57948;BME280;43754;56.992;24.292;2023-02-28T00:13:24;102691.69;;;-0.44;100.00
57948;BME280;43754;56.992;24.292;2023-02-28T00:16:01;102693.41;;;-0.43;100.00
57948;BME280;43754;56.992;24.292;2023-02-28T00:18:35;102687.34;;;-0.46;100.00
57948;BME280;43754;56.992;24.292;2023-02-28T00:21:07;102693.03;;;-0.56;100.00
57948;BME280;43754;56.992;24.292;2023-02-28T00:23:39;102689.56;;;-0.57;100.00
57948;BME280;43754;56.992;24.292;2023-02-28T00:26:12;102672.34;;;-0.65;100.00
57948;BME280;43754;56.992;24.292;2023-02-28T00:28:48;102672.59;;;-0.71;100.00
57948;BME280;43754;56.992;24.292;2023-02-28T00:31:20;102675.59;;;-0.80;100.00
57948;BME280;43754;56.992;24.292;2023-02-28T00:33:53;102673.00;;;-0.82;100.00
57948;BME280;43754;56.992;24.292;2023-02-28T00:36:25;102676.66;;;-0.86;100.00
57948;BME280;43754;56.992;24.292;2023-02-28T00:38:57;102674.03;;;-0.86;100.00
57948;BME280;43754;56.992;24.292;2023-02-28T00:41:32;102669.81;;;-0.90;100.00
57948;BME280;43754;56.992;24.292;2023-02-28T00:44:04;102661.91;;;-0.90;100.00
57948;BME280;43754;56.992;24.292;2023-02-28T00:46:36;102660.09;;;-0.88;100.00
57948;BME280;43754;56.992;24.292;2023-02-28T00:49:09;102654.16;;;-0.93;100.00
57948;BME280;43754;56.992;24.292;2023-02-28T00:51:41;102661.22;;;-0.95;100.00
57948;BME280;43754;56.992;24.292;2023-02-28T00:54:13;102656.28;;;-1.03;100.00
57948;BME280;43754;56.992;24.292;2023-02-28T00:56:45;102655.56;;;-1.08;100.00
57948;BME280;43754;56.992;24.292;2023-02-28T00:59:18;102649.72;;;-1.14;100.00
57948;BME280;43754;56.992;24.292;2023-02-28T01:01:50;102651.91;;;-1.25;100.00
57948;BME280;43754;56.992;24.292;2023-02-28T01:04:23;102638.78;;;-1.27;100.00
57948;BME280;43754;56.992;24.292;2023-02-28T01:06:55;102645.81;;;-1.27;100.00
57948;BME280;43754;56.992;24.292;2023-02-28T01:09:27;102652.94;;;-1.29;100.00
57948;BME280;43754;56.992;24.292;2023-02-28T01:11:59;102649.47;;;-1.31;100.00
57948;BME280;43754;56.992;24.292;2023-02-28T01:14:31;102633.81;;;-1.34;100.00
57948;BME280;43754;56.992;24.292;2023-02-28T01:17:03;102634.84;;;-1.38;100.00
57948;BME280;43754;56.992;24.292;2023-02-28T01:19:37;102634.13;;;-1.42;100.00
57948;BME280;43754;56.992;24.292;2023-02-28T01:22:09;102642.91;;;-1.43;100.00
57948;BME280;43754;56.992;24.292;2023-02-28T01:24:41;102642.91;;;-1.43;100.00
57948;BME280;43754;56.992;24.292;2023-02-28T01:27:16;102637.56;;;-1.42;100.00
57948;BME280;43754;56.992;24.292;2023-02-28T01:29:48;102649.94;;;-1.44;100.00
57948;BME280;43754;56.992;24.292;2023-02-28T01:32:22;102642.22;;;-1.48;100.00
57948;BME280;43754;56.992;24.292;2023-02-28T01:34:55;102636.34;;;-1.55;100.00
57948;BME280;43754;56.992;24.292;2023-02-28T01:37:27;102644.28;;;-1.56;100.00
57948;BME280;43754;56.992;24.292;2023-02-28T01:40:00;102643.44;;;-1.58;100.00
57948;BME280;43754;56.992;24.292;2023-02-28T01:42:32;102643.56;;;-1.61;100.00
57948;BME280;43754;56.992;24.292;2023-02-28T01:45:17;102638.34;;;-1.63;100.00
57948;BME280;43754;56.992;24.292;2023-02-28T01:47:53;102640.38;;;-1.69;100.00
57948;BME280;43754;56.992;24.292;2023-02-28T01:50:31;102636.00;;;-1.70;100.00
57948;BME280;43754;56.992;24.292;2023-02-28T01:53:07;102636.19;;;-1.75;100.00
57948;BME280;43754;56.992;24.292;2023-02-28T01:55:45;102637.13;;;-1.76;100.00
57948;BME280;43754;56.992;24.292;2023-02-28T01:58:18;102631.91;;;-1.77;100.00
57948;BME280;43754;56.992;24.292;2023-02-28T02:00:51;102623.31;;;-1.82;100.00
57948;BME280;43754;56.992;24.292;2023-02-28T02:03:23;102634.81;;;-1.85;100.00
57948;BME280;43754;56.992;24.292;2023-02-28T02:05:57;102626.91;;;-1.85;100.00
57948;BME280;43754;56.992;24.292;2023-02-28T02:08:29;102618.22;;;-1.87;100.00
57948;BME280;43754;56.992;24.292;2023-02-28T02:11:01;102623.47;;;-1.87;100.00
57948;BME280;43754;56.992;24.292;2023-02-28T02:13:42;102612.09;;;-1.88;100.00
57948;BME280;43754;56.992;24.292;2023-02-28T02:16:29;102619.16;;;-1.88;100.00
57948;BME280;43754;56.992;24.292;2023-02-28T02:19:17;102612.19;;;-1.89;100.00
57948;BME280;43754;56.992;24.292;2023-02-28T02:22:11;102607.94;;;-1.93;100.00
57948;BME280;43754;56.992;24.292;2023-02-28T02:25:14;102610.63;;;-1.95;100.00
57948;BME280;43754;56.992;24.292;2023-02-28T02:28:11;102605.41;;;-1.96;100.00
57948;BME280;43754;56.992;24.292;2023-02-28T02:37:18;102611.03;;;-2.07;100.00
57948;BME280;43754;56.992;24.292;2023-02-28T02:39:59;102607.63;;;-2.09;100.00
57948;BME280;43754;56.992;24.292;2023-02-28T02:42:39;102607.84;;;-2.15;100.00
57948;BME280;43754;56.992;24.292;2023-02-28T02:45:18;102602.69;;;-2.18;100.00
57948;BME280;43754;56.992;24.292;2023-02-28T02:47:55;102600.97;;;-2.19;100.00
57948;BME280;43754;56.992;24.292;2023-02-28T02:50:33;102603.56;;;-2.17;100.00
57948;BME280;43754;56.992;24.292;2023-02-28T02:53:09;102592.09;;;-2.16;100.00
57948;BME280;43754;56.992;24.292;2023-02-28T02:55:46;102598.03;;;-2.10;100.00
57948;BME280;43754;56.992;24.292;2023-02-28T02:58:23;102595.28;;;-2.07;100.00
57948;BME280;43754;56.992;24.292;2023-02-28T03:01:00;102598.72;;;-2.05;100.00
57948;BME280;43754;56.992;24.292;2023-02-28T03:03:35;102591.75;;;-2.06;100.00
57948;BME280;43754;56.992;24.292;2023-02-28T03:06:07;102593.47;;;-2.05;100.00
57948;BME280;43754;56.992;24.292;2023-02-28T03:08:41;102591.75;;;-2.06;100.00
57948;BME280;43754;56.992;24.292;2023-02-28T03:11:14;102589.25;;;-2.09;100.00
57948;BME280;43754;56.992;24.292;2023-02-28T03:19:55;102580.50;;;-2.09;100.00
57948;BME280;43754;56.992;24.292;2023-02-28T03:22:43;102576.09;;;-2.09;100.00
57948;BME280;43754;56.992;24.292;2023-02-28T03:25:29;102584.97;;;-2.13;100.00
57948;BME280;43754;56.992;24.292;2023-02-28T03:28:09;102576.25;;;-2.13;100.00
57948;BME280;43754;56.992;24.292;2023-02-28T03:30:47;102568.25;;;-2.10;100.00
57948;BME280;43754;56.992;24.292;2023-02-28T03:33:29;102560.28;;;-2.07;100.00
57948;BME280;43754;56.992;24.292;2023-02-28T03:36:04;102559.19;;;-2.02;100.00
57948;BME280;43754;56.992;24.292;2023-02-28T03:38:41;102559.72;;;-1.92;100.00
57948;BME280;43754;56.992;24.292;2023-02-28T03:41:20;102549.78;;;-1.84;100.00
57948;BME280;43754;56.992;24.292;2023-02-28T03:43:55;102545.97;;;-1.75;100.00
57948;BME280;43754;56.992;24.292;2023-02-28T03:46:31;102546.47;;;-1.66;100.00
57948;BME280;43754;56.992;24.292;2023-02-28T03:49:09;102538.97;;;-1.53;100.00
57948;BME280;43754;56.992;24.292;2023-02-28T03:51:46;102530.72;;;-1.44;100.00
57948;BME280;43754;56.992;24.292;2023-02-28T03:54:22;102530.44;;;-1.36;100.00
57948;BME280;43754;56.992;24.292;2023-02-28T03:57:00;102523.91;;;-1.26;100.00
57948;BME280;43754;56.992;24.292;2023-02-28T03:59:37;102528.91;;;-1.20;100.00
57948;BME280;43754;56.992;24.292;2023-02-28T04:02:11;102525.19;;;-1.15;100.00
57948;BME280;43754;56.992;24.292;2023-02-28T04:04:43;102524.94;;;-1.09;100.00
57948;BME280;43754;56.992;24.292;2023-02-28T04:07:17;102520.22;;;-1.01;100.00
57948;BME280;43754;56.992;24.292;2023-02-28T04:09:49;102516.28;;;-0.90;100.00
57948;BME280;43754;56.992;24.292;2023-02-28T04:12:23;102509.72;;;-0.80;100.00
57948;BME280;43754;56.992;24.292;2023-02-28T04:14:55;102497.25;;;-0.75;100.00
57948;BME280;43754;56.992;24.292;2023-02-28T04:17:26;102502.19;;;-0.68;100.00
57948;BME280;43754;56.992;24.292;2023-02-28T04:19:58;102493.09;;;-0.61;100.00
57948;BME280;43754;56.992;24.292;2023-02-28T04:22:31;102491.03;;;-0.54;100.00
57948;BME280;43754;56.992;24.292;2023-02-28T04:25:04;102490.84;;;-0.50;100.00
57948;BME280;43754;56.992;24.292;2023-02-28T04:27:38;102493.41;;;-0.48;100.00
57948;BME280;43754;56.992;24.292;2023-02-28T04:30:11;102481.81;;;-0.44;100.00
57948;BME280;43754;56.992;24.292;2023-02-28T04:32:43;102484.97;;;-0.36;100.00
57948;BME280;43754;56.992;24.292;2023-02-28T04:35:15;102481.22;;;-0.30;100.00
57948;BME280;43754;56.992;24.292;2023-02-28T04:37:48;102478.09;;;-0.20;100.00
57948;BME280;43754;56.992;24.292;2023-02-28T04:40:20;102470.63;;;-0.10;100.00
57948;BME280;43754;56.992;24.292;2023-02-28T04:42:53;102474.69;;;-0.03;100.00
57948;BME280;43754;56.992;24.292;2023-02-28T04:45:25;102475.19;;;0.05;100.00
57948;BME280;43754;56.992;24.292;2023-02-28T04:47:57;102458.19;;;0.12;100.00
57948;BME280;43754;56.992;24.292;2023-02-28T04:50:29;102443.72;;;0.21;100.00
57948;BME280;43754;56.992;24.292;2023-02-28T04:53:01;102452.25;;;0.26;100.00
57948;BME280;43754;56.992;24.292;2023-02-28T04:55:33;102454.78;;;0.29;100.00
57948;BME280;43754;56.992;24.292;2023-02-28T04:58:06;102452.69;;;0.35;100.00
57948;BME280;43754;56.992;24.292;2023-02-28T05:00:40;102449.84;;;0.40;100.00
57948;BME280;43754;56.992;24.292;2023-02-28T05:03:12;102449.78;;;0.41;100.00
57948;BME280;43754;56.992;24.292;2023-02-28T05:05:44;102437.41;;;0.42;100.00
57948;BME280;43754;56.992;24.292;2023-02-28T05:08:16;102436.28;;;0.47;100.00
57948;BME280;43754;56.992;24.292;2023-02-28T05:10:48;102434.50;;;0.48;100.00
57948;BME280;43754;56.992;24.292;2023-02-28T05:13:21;102437.84;;;0.52;100.00
57948;BME280;43754;56.992;24.292;2023-02-28T05:15:54;102440.31;;;0.55;100.00
57948;BME280;43754;56.992;24.292;2023-02-28T05:18:26;102442.59;;;0.62;100.00
57948;BME280;43754;56.992;24.292;2023-02-28T05:20:59;102437.94;;;0.67;100.00
57948;BME280;43754;56.992;24.292;2023-02-28T05:23:34;102435.31;;;0.67;100.00
57948;BME280;43754;56.992;24.292;2023-02-28T05:26:06;102431.56;;;0.71;100.00
57948;BME280;43754;56.992;24.292;2023-02-28T05:28:39;102438.34;;;0.77;100.00
57948;BME280;43754;56.992;24.292;2023-02-28T05:31:11;102427.78;;;0.77;100.00
57948;BME280;43754;56.992;24.292;2023-02-28T05:33:43;102426.94;;;0.76;100.00
57948;BME280;43754;56.992;24.292;2023-02-28T05:36:15;102425.16;;;0.77;100.00
57948;BME280;43754;56.992;24.292;2023-02-28T05:38:47;102432.00;;;0.81;100.00
57948;BME280;43754;56.992;24.292;2023-02-28T05:41:20;102426.31;;;0.88;100.00
57948;BME280;43754;56.992;24.292;2023-02-28T05:43:53;102439.22;;;0.95;100.00
57948;BME280;43754;56.992;24.292;2023-02-28T05:46:25;102440.16;;;0.93;100.00
57948;BME280;43754;56.992;24.292;2023-02-28T05:48:57;102426.66;;;1.00;100.00
57948;BME280;43754;56.992;24.292;2023-02-28T05:51:31;102425.56;;;1.04;100.00
57948;BME280;43754;56.992;24.292;2023-02-28T05:54:04;102433.25;;;1.08;100.00
57948;BME280;43754;56.992;24.292;2023-02-28T05:56:36;102427.72;;;1.13;100.00
57948;BME280;43754;56.992;24.292;2023-02-28T05:59:12;102425.06;;;1.13;100.00
57948;BME280;43754;56.992;24.292;2023-02-28T06:01:45;102419.66;;;1.16;100.00
57948;BME280;43754;56.992;24.292;2023-02-28T06:04:20;102424.16;;;1.14;100.00
57948;BME280;43754;56.992;24.292;2023-02-28T06:07:02;102429.81;;;1.23;100.00
57948;BME280;43754;56.992;24.292;2023-02-28T06:09:35;102429.75;;;1.25;100.00
57948;BME280;43754;56.992;24.292;2023-02-28T06:12:07;102428.66;;;1.29;100.00
57948;BME280;43754;56.992;24.292;2023-02-28T06:14:43;102439.69;;;1.37;100.00
57948;BME280;43754;56.992;24.292;2023-02-28T06:17:15;102426.06;;;1.45;100.00
57948;BME280;43754;56.992;24.292;2023-02-28T06:19:47;102420.88;;;1.43;100.00
57948;BME280;43754;56.992;24.292;2023-02-28T06:22:19;102412.63;;;1.49;100.00
57948;BME280;43754;56.992;24.292;2023-02-28T06:24:51;102411.97;;;1.61;100.00
57948;BME280;43754;56.992;24.292;2023-02-28T06:27:24;102424.84;;;1.67;100.00
57948;BME280;43754;56.992;24.292;2023-02-28T06:29:58;102424.78;;;1.69;100.00
57948;BME280;43754;56.992;24.292;2023-02-28T06:32:30;102415.22;;;1.66;100.00
57948;BME280;43754;56.992;24.292;2023-02-28T06:35:02;102406.69;;;1.61;100.00
57948;BME280;43754;56.992;24.292;2023-02-28T06:37:34;102410.25;;;1.60;100.00
57948;BME280;43754;56.992;24.292;2023-02-28T06:40:08;102410.50;;;1.56;100.00
57948;BME280;43754;56.992;24.292;2023-02-28T06:42:40;102406.19;;;1.70;100.00
57948;BME280;43754;56.992;24.292;2023-02-28T06:45:13;102407.25;;;1.83;100.00
57948;BME280;43754;56.992;24.292;2023-02-28T06:47:45;102402.41;;;1.92;100.00
57948;BME280;43754;56.992;24.292;2023-02-28T06:50:22;102404.00;;;2.10;100.00
57948;BME280;43754;56.992;24.292;2023-02-28T06:52:54;102405.97;;;2.22;100.00
57948;BME280;43754;56.992;24.292;2023-02-28T06:55:27;102398.47;;;2.30;100.00
57948;BME280;43754;56.992;24.292;2023-02-28T06:58:01;102402.78;;;2.47;100.00
57948;BME280;43754;56.992;24.292;2023-02-28T07:00:34;102397.66;;;2.59;100.00
57948;BME280;43754;56.992;24.292;2023-02-28T07:03:06;102398.84;;;2.69;100.00
57948;BME280;43754;56.992;24.292;2023-02-28T07:05:39;102405.03;;;2.84;100.00
57948;BME280;43754;56.992;24.292;2023-02-28T07:08:11;102414.41;;;2.90;100.00
57948;BME280;43754;56.992;24.292;2023-02-28T07:10:43;102401.38;;;3.01;100.00
57948;BME280;43754;56.992;24.292;2023-02-28T07:13:15;102413.41;;;2.92;100.00
57948;BME280;43754;56.992;24.292;2023-02-28T07:15:54;102409.53;;;2.98;100.00
57948;BME280;43754;56.992;24.292;2023-02-28T07:18:27;102415.53;;;3.15;100.00
57948;BME280;43754;56.992;24.292;2023-02-28T07:21:02;102404.41;;;3.24;100.00
57948;BME280;43754;56.992;24.292;2023-02-28T07:23:34;102390.69;;;3.46;100.00
57948;BME280;43754;56.992;24.292;2023-02-28T07:26:07;102402.59;;;3.67;100.00
57948;BME280;43754;56.992;24.292;2023-02-28T07:28:43;102370.97;;;3.79;100.00
57948;BME280;43754;56.992;24.292;2023-02-28T07:31:17;102376.66;;;3.72;100.00
57948;BME280;43754;56.992;24.292;2023-02-28T07:33:50;102366.63;;;3.78;100.00
57948;BME280;43754;56.992;24.292;2023-02-28T07:36:22;102357.88;;;3.90;100.00
57948;BME280;43754;56.992;24.292;2023-02-28T07:38:54;102361.09;;;4.09;100.00
57948;BME280;43754;56.992;24.292;2023-02-28T07:41:26;102355.44;;;4.28;100.00
57948;BME280;43754;56.992;24.292;2023-02-28T07:44:00;102356.25;;;4.42;100.00
57948;BME280;43754;56.992;24.292;2023-02-28T07:46:33;102355.22;;;4.31;100.00
57948;BME280;43754;56.992;24.292;2023-02-28T07:49:07;102336.25;;;4.37;100.00
57948;BME280;43754;56.992;24.292;2023-02-28T07:51:39;102346.66;;;4.40;100.00
57948;BME280;43754;56.992;24.292;2023-02-28T07:54:11;102343.31;;;4.50;100.00
57948;BME280;43754;56.992;24.292;2023-02-28T07:56:43;102329.72;;;4.55;100.00
57948;BME280;43754;56.992;24.292;2023-02-28T07:59:15;102333.38;;;4.67;100.00
57948;BME280;43754;56.992;24.292;2023-02-28T08:01:49;102334.03;;;4.95;100.00
57948;BME280;43754;56.992;24.292;2023-02-28T08:04:22;102337.34;;;4.99;100.00
57948;BME280;43754;56.992;24.292;2023-02-28T08:06:54;102341.88;;;4.97;100.00
57948;BME280;43754;56.992;24.292;2023-02-28T08:09:28;102341.16;;;5.07;100.00
57948;BME280;43754;56.992;24.292;2023-02-28T08:12:01;102341.50;;;5.28;100.00
57948;BME280;43754;56.992;24.292;2023-02-28T08:14:33;102340.84;;;5.37;100.00
57948;BME280;43754;56.992;24.292;2023-02-28T08:17:07;102338.72;;;5.42;100.00
57948;BME280;43754;56.992;24.292;2023-02-28T08:19:39;102328.09;;;5.30;100.00
57948;BME280;43754;56.992;24.292;2023-02-28T08:22:10;102329.44;;;5.48;100.00
57948;BME280;43754;56.992;24.292;2023-02-28T08:24:43;102310.53;;;5.40;100.00
57948;BME280;43754;56.992;24.292;2023-02-28T08:27:15;102321.16;;;5.52;100.00
57948;BME280;43754;56.992;24.292;2023-02-28T08:29:47;102311.66;;;5.74;100.00
57948;BME280;43754;56.992;24.292;2023-02-28T08:32:20;102308.06;;;5.62;100.00
57948;BME280;43754;56.992;24.292;2023-02-28T08:35:01;102299.53;;;5.70;100.00
57948;BME280;43754;56.992;24.292;2023-02-28T08:37:34;102306.09;;;5.89;100.00
57948;BME280;43754;56.992;24.292;2023-02-28T08:40:08;102295.91;;;5.71;100.00
57948;BME280;43754;56.992;24.292;2023-02-28T08:42:40;102304.50;;;5.87;100.00
57948;BME280;43754;56.992;24.292;2023-02-28T08:45:12;102305.84;;;6.05;100.00
57948;BME280;43754;56.992;24.292;2023-02-28T08:47:46;102303.38;;;6.02;100.00
57948;BME280;43754;56.992;24.292;2023-02-28T08:50:18;102310.88;;;6.21;100.00
57948;BME280;43754;56.992;24.292;2023-02-28T08:52:50;102297.53;;;6.44;100.00
57948;BME280;43754;56.992;24.292;2023-02-28T08:55:22;102290.97;;;6.37;100.00
57948;BME280;43754;56.992;24.292;2023-02-28T08:57:54;102291.75;;;6.51;100.00
57948;BME280;43754;56.992;24.292;2023-02-28T09:00:26;102294.50;;;6.38;100.00
57948;BME280;43754;56.992;24.292;2023-02-28T09:03:00;102285.91;;;6.34;100.00
57948;BME280;43754;56.992;24.292;2023-02-28T09:05:32;102282.78;;;6.52;100.00
57948;BME280;43754;56.992;24.292;2023-02-28T09:08:04;102282.25;;;6.81;100.00
57948;BME280;43754;56.992;24.292;2023-02-28T09:10:36;102269.34;;;6.88;100.00
57948;BME280;43754;56.992;24.292;2023-02-28T09:13:08;102270.28;;;6.76;100.00
57948;BME280;43754;56.992;24.292;2023-02-28T09:15:40;102261.78;;;6.71;100.00
57948;BME280;43754;56.992;24.292;2023-02-28T09:18:14;102277.06;;;6.80;100.00
57948;BME280;43754;56.992;24.292;2023-02-28T09:20:46;102275.38;;;6.79;100.00
57948;BME280;43754;56.992;24.292;2023-02-28T09:23:19;102287.84;;;6.78;100.00
57948;BME280;43754;56.992;24.292;2023-02-28T09:25:53;102278.69;;;7.05;100.00
57948;BME280;43754;56.992;24.292;2023-02-28T09:28:25;102278.09;;;7.34;100.00
57948;BME280;43754;56.992;24.292;2023-02-28T09:30:58;102268.25;;;7.57;100.00
57948;BME280;43754;56.992;24.292;2023-02-28T09:33:32;102275.88;;;7.62;99.62
57948;BME280;43754;56.992;24.292;2023-02-28T09:36:06;102264.38;;;7.39;100.00
57948;BME280;43754;56.992;24.292;2023-02-28T09:38:38;102252.13;;;7.36;100.00
57948;BME280;43754;56.992;24.292;2023-02-28T09:41:13;102254.34;;;7.09;100.00
57948;BME280;43754;56.992;24.292;2023-02-28T09:43:50;102233.69;;;7.22;100.00
57948;BME280;43754;56.992;24.292;2023-02-28T09:46:29;102220.03;;;7.16;100.00
57948;BME280;43754;56.992;24.292;2023-02-28T09:49:07;102216.25;;;7.18;100.00
57948;BME280;43754;56.992;24.292;2023-02-28T09:51:50;102224.00;;;7.32;100.00
57948;BME280;43754;56.992;24.292;2023-02-28T09:54:24;102236.38;;;7.22;100.00
57948;BME280;43754;56.992;24.292;2023-02-28T09:57:04;102252.75;;;7.18;100.00
57948;BME280;43754;56.992;24.292;2023-02-28T09:59:48;102249.81;;;6.99;100.00
57948;BME280;43754;56.992;24.292;2023-02-28T10:02:53;102250.44;;;7.02;100.00
57948;BME280;43754;56.992;24.292;2023-02-28T10:05:34;102250.56;;;7.23;100.00
57948;BME280;43754;56.992;24.292;2023-02-28T10:08:13;102252.25;;;7.24;100.00
57948;BME280;43754;56.992;24.292;2023-02-28T10:10:48;102256.03;;;7.21;100.00
57948;BME280;43754;56.992;24.292;2023-02-28T10:13:27;102270.19;;;7.11;100.00
57948;BME280;43754;56.992;24.292;2023-02-28T10:16:06;102268.50;;;7.21;100.00
57948;BME280;43754;56.992;24.292;2023-02-28T10:18:43;102270.94;;;7.24;100.00
57948;BME280;43754;56.992;24.292;2023-02-28T10:21:21;102267.28;;;7.36;100.00
57948;BME280;43754;56.992;24.292;2023-02-28T10:24:02;102259.88;;;7.39;100.00
57948;BME280;43754;56.992;24.292;2023-02-28T10:26:36;102250.22;;;7.38;100.00
57948;BME280;43754;56.992;24.292;2023-02-28T10:29:09;102236.16;;;7.25;100.00
57948;BME280;43754;56.992;24.292;2023-02-28T10:31:42;102237.59;;;7.29;100.00
57948;BME280;43754;56.992;24.292;2023-02-28T10:34:14;102236.59;;;7.64;100.00
57948;BME280;43754;56.992;24.292;2023-02-28T10:36:49;102231.59;;;7.70;99.36
57948;BME280;43754;56.992;24.292;2023-02-28T10:39:35;102233.47;;;7.91;98.91
57948;BME280;43754;56.992;24.292;2023-02-28T10:42:23;102232.13;;;7.96;97.46
57948;BME280;43754;56.992;24.292;2023-02-28T10:45:11;102220.75;;;7.83;97.66
57948;BME280;43754;56.992;24.292;2023-02-28T10:47:52;102208.63;;;7.79;97.93
57948;BME280;43754;56.992;24.292;2023-02-28T10:50:39;102203.41;;;7.34;100.00
57948;BME280;43754;56.992;24.292;2023-02-28T10:53:28;102218.34;;;7.26;100.00
57948;BME280;43754;56.992;24.292;2023-02-28T10:56:16;102233.47;;;7.36;100.00
57948;BME280;43754;56.992;24.292;2023-02-28T10:58:54;102238.53;;;7.39;100.00
57948;BME280;43754;56.992;24.292;2023-02-28T11:01:35;102261.47;;;7.31;100.00
57948;BME280;43754;56.992;24.292;2023-02-28T11:04:18;102265.72;;;7.45;100.00
57948;BME280;43754;56.992;24.292;2023-02-28T11:06:57;102257.22;;;7.39;100.00
57948;BME280;43754;56.992;24.292;2023-02-28T11:09:33;102253.94;;;7.36;100.00
57948;BME280;43754;56.992;24.292;2023-02-28T11:12:20;102232.97;;;7.31;100.00
57948;BME280;43754;56.992;24.292;2023-02-28T11:14:55;102232.00;;;7.32;100.00
57948;BME280;43754;56.992;24.292;2023-02-28T11:17:30;102216.75;;;7.34;100.00
57948;BME280;43754;56.992;24.292;2023-02-28T11:20:05;102219.09;;;7.60;100.00
57948;BME280;43754;56.992;24.292;2023-02-28T11:22:43;102210.13;;;7.72;100.00
57948;BME280;43754;56.992;24.292;2023-02-28T11:25:21;102209.13;;;7.73;99.20
57948;BME280;43754;56.992;24.292;2023-02-28T11:27:56;102212.38;;;7.88;99.32
57948;BME280;43754;56.992;24.292;2023-02-28T11:30:34;102198.28;;;7.85;98.36
57948;BME280;43754;56.992;24.292;2023-02-28T11:33:22;102205.00;;;7.69;99.03
57948;BME280;43754;56.992;24.292;2023-02-28T11:35:57;102209.91;;;7.64;100.00
57948;BME280;43754;56.992;24.292;2023-02-28T11:38:34;102219.63;;;7.54;100.00
57948;BME280;43754;56.992;24.292;2023-02-28T11:41:22;102211.88;;;7.51;99.89
57948;BME280;43754;56.992;24.292;2023-02-28T11:44:21;102204.13;;;7.14;100.00
57948;BME280;43754;56.992;24.292;2023-02-28T11:47:01;102201.81;;;7.10;100.00
57948;BME280;43754;56.992;24.292;2023-02-28T11:49:43;102190.19;;;7.11;100.00
57948;BME280;43754;56.992;24.292;2023-02-28T11:52:24;102184.66;;;6.91;100.00
57948;BME280;43754;56.992;24.292;2023-02-28T11:55:14;102195.06;;;6.94;100.00
57948;BME280;43754;56.992;24.292;2023-02-28T11:57:58;102188.78;;;6.84;100.00
57948;BME280;43754;56.992;24.292;2023-02-28T12:00:56;102187.66;;;6.87;100.00
57948;BME280;43754;56.992;24.292;2023-02-28T12:03:35;102184.00;;;6.77;100.00
57948;BME280;43754;56.992;24.292;2023-02-28T12:06:18;102187.28;;;6.69;100.00
57948;BME280;43754;56.992;24.292;2023-02-28T12:09:02;102205.47;;;6.75;100.00
57948;BME280;43754;56.992;24.292;2023-02-28T12:11:51;102189.84;;;6.71;100.00
57948;BME280;43754;56.992;24.292;2023-02-28T12:17:30;102187.28;;;6.58;100.00
57948;BME280;43754;56.992;24.292;2023-02-28T12:20:16;102183.06;;;6.78;100.00
57948;BME280;43754;56.992;24.292;2023-02-28T12:22:57;102183.06;;;6.89;100.00
57948;BME280;43754;56.992;24.292;2023-02-28T12:25:49;102186.94;;;6.96;100.00
57948;BME280;43754;56.992;24.292;2023-02-28T12:28:27;102185.34;;;6.93;100.00
57948;BME280;43754;56.992;24.292;2023-02-28T12:31:06;102187.28;;;6.69;100.00
57948;BME280;43754;56.992;24.292;2023-02-28T12:33:45;102181.34;;;6.66;100.00
57948;BME280;43754;56.992;24.292;2023-02-28T12:36:19;102167.44;;;6.62;100.00
57948;BME280;43754;56.992;24.292;2023-02-28T12:38:56;102177.34;;;6.60;100.00
57948;BME280;43754;56.992;24.292;2023-02-28T12:41:36;102173.34;;;6.55;100.00
57948;BME280;43754;56.992;24.292;2023-02-28T12:44:14;102171.91;;;6.62;100.00
57948;BME280;43754;56.992;24.292;2023-02-28T12:46:50;102162.56;;;6.56;100.00
57948;BME280;43754;56.992;24.292;2023-02-28T12:49:29;102158.81;;;6.70;100.00
57948;BME280;43754;56.992;24.292;2023-02-28T12:52:04;102168.53;;;6.82;100.00
57948;BME280;43754;56.992;24.292;2023-02-28T12:54:42;102167.56;;;6.72;100.00
57948;BME280;43754;56.992;24.292;2023-02-28T12:57:22;102172.50;;;6.65;100.00
57948;BME280;43754;56.992;24.292;2023-02-28T12:59:57;102177.69;;;6.56;100.00
57948;BME280;43754;56.992;24.292;2023-02-28T13:02:55;102179.75;;;6.52;100.00
57948;BME280;43754;56.992;24.292;2023-02-28T13:06:12;102166.31;;;6.65;100.00
57948;BME280;43754;56.992;24.292;2023-02-28T13:08:59;102157.84;;;6.60;100.00
57948;BME280;43754;56.992;24.292;2023-02-28T13:11:39;102163.66;;;6.65;100.00
57948;BME280;43754;56.992;24.292;2023-02-28T13:14:24;102153.13;;;6.74;100.00
57948;BME280;43754;56.992;24.292;2023-02-28T13:17:00;102155.69;;;6.76;100.00
57948;BME280;43754;56.992;24.292;2023-02-28T13:19:35;102169.13;;;6.85;100.00
57948;BME280;43754;56.992;24.292;2023-02-28T13:22:19;102171.03;;;6.72;100.00
57948;BME280;43754;56.992;24.292;2023-02-28T13:24:52;102180.34;;;6.44;100.00
57948;BME280;43754;56.992;24.292;2023-02-28T13:27:40;102178.88;;;6.40;100.00
57948;BME280;43754;56.992;24.292;2023-02-28T13:33:27;102161.88;;;6.19;100.00
57948;BME280;43754;56.992;24.292;2023-02-28T13:38:59;102167.13;;;5.97;100.00
57948;BME280;43754;56.992;24.292;2023-02-28T13:41:51;102167.63;;;6.02;100.00
57948;BME280;43754;56.992;24.292;2023-02-28T13:44:23;102164.13;;;6.01;100.00